sensor_id;sensor_type;location;lat;lon;timestamp;pressure;altitude;pressure_sealevel;temperature;humidity
78835;BME280;68187;42.682;23.352;2023-05-29T00:01:18;94924.13;;;13.70;79.22
78835;BME280;68187;42.682;23.352;2023-05-29T00:03:46;94942.88;;;13.79;79.53
78835;BME280;68187;42.682;23.352;2023-05-29T00:06:14;94941.59;;;13.76;79.50
78835;BME280;68187;42.682;23.352;2023-05-29T00:08:41;94934.91;;;13.79;79.16
78835;BME280;68187;42.682;23.352;2023-05-29T00:11:08;94934.69;;;13.75;79.33
78835;BME280;68187;42.682;23.352;2023-05-29T00:13:34;94944.00;;;13.73;79.64
78835;BME280;68187;42.682;23.352;2023-05-29T00:16:01;94946.41;;;13.74;79.77
78835;BME280;68187;42.682;23.352;2023-05-29T00:18:29;94944.31;;;13.71;79.94
78835;BME280;68187;42.682;23.352;2023-05-29T00:20:55;94945.09;;;13.72;79.96
78835;BME280;68187;42.682;23.352;2023-05-29T00:23:24;94941.94;;;13.70;79.61
78835;BME280;68187;42.682;23.352;2023-05-29T00:25:51;94950.91;;;13.74;79.74
78835;BME280;68187;42.682;23.352;2023-05-29T00:28:17;94930.41;;;13.61;79.32
78835;BME280;68187;42.682;23.352;2023-05-29T00:30:44;94950.47;;;13.67;79.58
78835;BME280;68187;42.682;23.352;2023-05-29T00:33:11;94939.38;;;13.65;79.57
78835;BME280;68187;42.682;23.352;2023-05-29T00:35:37;94938.56;;;13.64;79.83
78835;BME280;68187;42.682;23.352;2023-05-29T00:38:05;94925.72;;;13.52;79.96
78835;BME280;68187;42.682;23.352;2023-05-29T00:40:33;94935.41;;;13.62;79.74
78835;BME280;68187;42.682;23.352;2023-05-29T00:42:59;94937.56;;;13.60;79.82
78835;BME280;68187;42.682;23.352;2023-05-29T00:45:26;94948.19;;;13.60;79.59
78835;BME280;68187;42.682;23.352;2023-05-29T00:47:53;94949.53;;;13.57;79.50
78835;BME280;68187;42.682;23.352;2023-05-29T00:50:21;94942.50;;;13.48;79.99
78835;BME280;68187;42.682;23.352;2023-05-29T00:52:49;94942.31;;;13.44;80.01
78835;BME280;68187;42.682;23.352;2023-05-29T00:55:16;94939.16;;;13.42;79.83
78835;BME280;68187;42.682;23.352;2023-05-29T00:57:44;94926.47;;;13.39;80.14
78835;BME280;68187;42.682;23.352;2023-05-29T01:00:13;94929.47;;;13.33;80.22
78835;BME280;68187;42.682;23.352;2023-05-29T01:02:41;94940.84;;;13.33;80.34
78835;BME280;68187;42.682;23.352;2023-05-29T01:05:10;94946.75;;;13.30;80.31
78835;BME280;68187;42.682;23.352;2023-05-29T01:07:37;94924.06;;;13.19;80.34
78835;BME280;68187;42.682;23.352;2023-05-29T01:10:04;94935.34;;;13.30;80.37
78835;BME280;68187;42.682;23.352;2023-05-29T01:12:36;94919.84;;;13.18;80.38
78835;BME280;68187;42.682;23.352;2023-05-29T01:15:16;94939.63;;;13.26;79.92
78835;BME280;68187;42.682;23.352;2023-05-29T01:17:54;94922.50;;;13.18;80.26
78835;BME280;68187;42.682;23.352;2023-05-29T01:20:30;94934.69;;;13.19;80.31
78835;BME280;68187;42.682;23.352;2023-05-29T01:23:12;94932.81;;;13.20;80.31
78835;BME280;68187;42.682;23.352;2023-05-29T01:26:10;94933.16;;;13.13;80.05
78835;BME280;68187;42.682;23.352;2023-05-29T01:28:41;94936.66;;;13.09;80.18
78835;BME280;68187;42.682;23.352;2023-05-29T01:31:09;94936.91;;;13.12;80.32
78835;BME280;68187;42.682;23.352;2023-05-29T01:33:38;94937.97;;;13.11;80.67
78835;BME280;68187;42.682;23.352;2023-05-29T01:36:07;94936.91;;;13.12;80.45
78835;BME280;68187;42.682;23.352;2023-05-29T01:38:34;94927.94;;;13.08;80.49
78835;BME280;68187;42.682;23.352;2023-05-29T01:41:01;94934.06;;;13.04;80.59
78835;BME280;68187;42.682;23.352;2023-05-29T01:43:28;94933.03;;;13.00;80.52
78835;BME280;68187;42.682;23.352;2023-05-29T01:45:57;94931.72;;;12.97;80.93
78835;BME280;68187;42.682;23.352;2023-05-29T01:48:25;94929.66;;;12.94;81.05
78835;BME280;68187;42.682;23.352;2023-05-29T01:50:52;94936.53;;;12.95;81.20
78835;BME280;68187;42.682;23.352;2023-05-29T01:53:20;94921.28;;;12.87;81.36
78835;BME280;68187;42.682;23.352;2023-05-29T01:55:48;94920.97;;;12.88;81.39
78835;BME280;68187;42.682;23.352;2023-05-29T01:58:16;94930.16;;;12.96;81.42
78835;BME280;68187;42.682;23.352;2023-05-29T02:00:44;94929.66;;;12.94;81.17
78835;BME280;68187;42.682;23.352;2023-05-29T02:03:12;94932.31;;;12.94;81.03
78835;BME280;68187;42.682;23.352;2023-05-29T02:05:39;94921.97;;;12.93;80.94
78835;BME280;68187;42.682;23.352;2023-05-29T02:08:05;94928.56;;;12.95;80.94
78835;BME280;68187;42.682;23.352;2023-05-29T02:10:32;94921.22;;;12.92;80.86
78835;BME280;68187;42.682;23.352;2023-05-29T02:12:59;94908.88;;;12.82;80.82
78835;BME280;68187;42.682;23.352;2023-05-29T02:15:26;94920.41;;;12.92;80.92
78835;BME280;68187;42.682;23.352;2023-05-29T02:17:52;94916.97;;;12.91;81.13
78835;BME280;68187;42.682;23.352;2023-05-29T02:20:21;94914.81;;;12.93;80.95
78835;BME280;68187;42.682;23.352;2023-05-29T02:22:47;94914.81;;;12.93;81.01
78835;BME280;68187;42.682;23.352;2023-05-29T02:25:14;94927.81;;;12.95;80.94
78835;BME280;68187;42.682;23.352;2023-05-29T02:27:41;94921.72;;;12.94;80.93
78835;BME280;68187;42.682;23.352;2023-05-29T02:30:08;94922.78;;;12.93;80.67
78835;BME280;68187;42.682;23.352;2023-05-29T02:32:35;94925.72;;;12.92;80.95
78835;BME280;68187;42.682;23.352;2023-05-29T02:35:01;94912.56;;;12.81;81.25
78835;BME280;68187;42.682;23.352;2023-05-29T02:37:30;94930.22;;;12.91;80.89
78835;BME280;68187;42.682;23.352;2023-05-29T02:39:56;94922.81;;;12.88;81.17
78835;BME280;68187;42.682;23.352;2023-05-29T02:42:23;94930.22;;;12.91;81.43
78835;BME280;68187;42.682;23.352;2023-05-29T02:44:50;94936.09;;;12.88;80.98
78835;BME280;68187;42.682;23.352;2023-05-29T02:47:16;94931.38;;;12.85;81.02
78835;BME280;68187;42.682;23.352;2023-05-29T02:49:43;94934.81;;;12.85;81.13
78835;BME280;68187;42.682;23.352;2023-05-29T02:52:10;94936.44;;;12.81;81.35
78835;BME280;68187;42.682;23.352;2023-05-29T02:54:38;94923.75;;;12.78;81.69
78835;BME280;68187;42.682;23.352;2023-05-29T02:57:05;94929.50;;;12.85;82.00
78835;BME280;68187;42.682;23.352;2023-05-29T02:59:31;94920.31;;;12.78;82.08
78835;BME280;68187;42.682;23.352;2023-05-29T03:01:58;94927.13;;;12.84;82.26
78835;BME280;68187;42.682;23.352;2023-05-29T03:04:26;94926.56;;;12.87;81.86
78835;BME280;68187;42.682;23.352;2023-05-29T03:06:53;94933.38;;;12.93;82.23
78835;BME280;68187;42.682;23.352;2023-05-29T03:09:19;94928.13;;;12.88;82.22
78835;BME280;68187;42.682;23.352;2023-05-29T03:11:48;94935.41;;;13.01;81.90
78835;BME280;68187;42.682;23.352;2023-05-29T03:14:15;94940.44;;;13.03;82.05
78835;BME280;68187;42.682;23.352;2023-05-29T03:16:44;94921.41;;;12.96;82.17
78835;BME280;68187;42.682;23.352;2023-05-29T03:19:11;94936.72;;;13.04;82.22
78835;BME280;68187;42.682;23.352;2023-05-29T03:21:37;94922.72;;;12.98;82.00
78835;BME280;68187;42.682;23.352;2023-05-29T03:24:05;94917.72;;;12.97;82.19
78835;BME280;68187;42.682;23.352;2023-05-29T03:26:32;94928.81;;;12.99;82.10
78835;BME280;68187;42.682;23.352;2023-05-29T03:29:00;94936.47;;;13.00;82.38
78835;BME280;68187;42.682;23.352;2023-05-29T03:31:26;94942.75;;;13.09;82.35
78835;BME280;68187;42.682;23.352;2023-05-29T03:33:53;94947.00;;;13.10;82.27
78835;BME280;68187;42.682;23.352;2023-05-29T03:36:20;94925.88;;;13.00;82.43
78835;BME280;68187;42.682;23.352;2023-05-29T03:38:47;94954.31;;;13.18;82.48
78835;BME280;68187;42.682;23.352;2023-05-29T03:41:14;94961.97;;;13.20;82.48
78835;BME280;68187;42.682;23.352;2023-05-29T03:43:40;94956.91;;;13.23;82.63
78835;BME280;68187;42.682;23.352;2023-05-29T03:46:09;94961.91;;;13.25;82.88
78835;BME280;68187;42.682;23.352;2023-05-29T03:48:35;94973.25;;;13.30;82.87
78835;BME280;68187;42.682;23.352;2023-05-29T03:51:02;94969.69;;;13.40;82.87
78835;BME280;68187;42.682;23.352;2023-05-29T03:53:29;94969.03;;;13.48;82.77
78835;BME280;68187;42.682;23.352;2023-05-29T03:55:56;94961.31;;;13.51;82.48
78835;BME280;68187;42.682;23.352;2023-05-29T03:58:22;94966.41;;;13.67;82.50
78835;BME280;68187;42.682;23.352;2023-05-29T04:00:49;94966.91;;;13.69;82.52
78835;BME280;68187;42.682;23.352;2023-05-29T04:03:17;94949.84;;;13.56;82.69
78835;BME280;68187;42.682;23.352;2023-05-29T04:05:44;94973.13;;;13.78;82.76
78835;BME280;68187;42.682;23.352;2023-05-29T04:08:11;94977.59;;;13.82;82.87
78835;BME280;68187;42.682;23.352;2023-05-29T04:10:38;94989.19;;;13.86;82.54
78835;BME280;68187;42.682;23.352;2023-05-29T04:13:05;94971.78;;;13.80;82.75
78835;BME280;68187;42.682;23.352;2023-05-29T04:15:32;94990.34;;;13.99;82.85
78835;BME280;68187;42.682;23.352;2023-05-29T04:18:00;94986.03;;;14.03;83.07
78835;BME280;68187;42.682;23.352;2023-05-29T04:20:28;94993.06;;;14.12;82.96
78835;BME280;68187;42.682;23.352;2023-05-29T04:22:54;94989.25;;;14.18;82.86
78835;BME280;68187;42.682;23.352;2023-05-29T04:25:22;94988.88;;;14.25;83.09
78835;BME280;68187;42.682;23.352;2023-05-29T04:27:48;94992.28;;;14.31;82.31
78835;BME280;68187;42.682;23.352;2023-05-29T04:30:16;94970.34;;;14.20;82.40
78835;BME280;68187;42.682;23.352;2023-05-29T04:32:43;94965.41;;;14.32;82.49
78835;BME280;68187;42.682;23.352;2023-05-29T04:35:10;94989.56;;;14.49;82.47
78835;BME280;68187;42.682;23.352;2023-05-29T04:37:38;94990.34;;;14.50;82.38
78835;BME280;68187;42.682;23.352;2023-05-29T04:40:06;94991.06;;;14.55;82.64
78835;BME280;68187;42.682;23.352;2023-05-29T04:42:34;95000.44;;;14.66;82.47
78835;BME280;68187;42.682;23.352;2023-05-29T04:45:01;94975.91;;;14.56;82.26
78835;BME280;68187;42.682;23.352;2023-05-29T04:47:30;95001.91;;;14.72;82.11
78835;BME280;68187;42.682;23.352;2023-05-29T04:49:58;94973.66;;;14.63;81.75
78835;BME280;68187;42.682;23.352;2023-05-29T04:52:25;94982.22;;;14.73;81.51
78835;BME280;68187;42.682;23.352;2023-05-29T04:54:54;95010.59;;;14.91;81.20
78835;BME280;68187;42.682;23.352;2023-05-29T04:57:21;94982.72;;;14.75;79.76
78835;BME280;68187;42.682;23.352;2023-05-29T04:59:48;95010.72;;;15.00;79.64
78835;BME280;68187;42.682;23.352;2023-05-29T05:02:15;94996.44;;;14.96;79.35
78835;BME280;68187;42.682;23.352;2023-05-29T05:04:42;95014.47;;;15.13;79.15
78835;BME280;68187;42.682;23.352;2023-05-29T05:07:10;95018.78;;;15.22;79.33
78835;BME280;68187;42.682;23.352;2023-05-29T05:09:37;95021.06;;;15.29;78.98
78835;BME280;68187;42.682;23.352;2023-05-29T05:12:06;95018.59;;;15.32;78.48
78835;BME280;68187;42.682;23.352;2023-05-29T05:14:33;95031.19;;;15.40;78.45
78835;BME280;68187;42.682;23.352;2023-05-29T05:17:00;95031.69;;;15.42;77.82
78835;BME280;68187;42.682;23.352;2023-05-29T05:19:26;95028.78;;;15.44;77.67
78835;BME280;68187;42.682;23.352;2023-05-29T05:21:53;95004.72;;;15.35;77.14
78835;BME280;68187;42.682;23.352;2023-05-29T05:24:20;95027.00;;;15.53;77.01
78835;BME280;68187;42.682;23.352;2023-05-29T05:26:46;95024.34;;;15.53;75.85
78835;BME280;68187;42.682;23.352;2023-05-29T05:29:14;95023.75;;;15.56;75.91
78835;BME280;68187;42.682;23.352;2023-05-29T05:31:41;95029.34;;;15.54;76.01
78835;BME280;68187;42.682;23.352;2023-05-29T05:34:08;95025.91;;;15.54;75.49
78835;BME280;68187;42.682;23.352;2023-05-29T05:36:35;95004.09;;;15.38;76.14
78835;BME280;68187;42.682;23.352;2023-05-29T05:39:02;95028.84;;;15.66;76.01
78835;BME280;68187;42.682;23.352;2023-05-29T05:41:28;95036.63;;;15.76;75.75
78835;BME280;68187;42.682;23.352;2023-05-29T05:43:55;95036.81;;;15.80;75.45
78835;BME280;68187;42.682;23.352;2023-05-29T05:46:23;95028.34;;;15.78;74.82
78835;BME280;68187;42.682;23.352;2023-05-29T05:48:50;95000.13;;;15.77;75.02
78835;BME280;68187;42.682;23.352;2023-05-29T05:51:17;95004.69;;;15.76;73.65
78835;BME280;68187;42.682;23.352;2023-05-29T05:53:44;95017.25;;;15.98;73.51
78835;BME280;68187;42.682;23.352;2023-05-29T05:56:11;95026.16;;;16.15;72.90
78835;BME280;68187;42.682;23.352;2023-05-29T05:58:38;95021.31;;;16.17;72.99
78835;BME280;68187;42.682;23.352;2023-05-29T06:01:05;95019.91;;;16.20;73.36
78835;BME280;68187;42.682;23.352;2023-05-29T06:03:34;95019.81;;;16.25;73.32
78835;BME280;68187;42.682;23.352;2023-05-29T06:06:02;95016.66;;;16.23;73.11
78835;BME280;68187;42.682;23.352;2023-05-29T06:08:29;94979.63;;;15.99;73.23
78835;BME280;68187;42.682;23.352;2023-05-29T06:10:56;95007.44;;;16.29;72.95
78835;BME280;68187;42.682;23.352;2023-05-29T06:13:23;94986.13;;;16.29;72.36
78835;BME280;68187;42.682;23.352;2023-05-29T06:15:49;95023.97;;;16.53;72.34
78835;BME280;68187;42.682;23.352;2023-05-29T06:18:16;94965.97;;;16.14;72.01
78835;BME280;68187;42.682;23.352;2023-05-29T06:20:44;95014.25;;;16.35;72.06
78835;BME280;68187;42.682;23.352;2023-05-29T06:23:11;95035.16;;;16.41;72.20
78835;BME280;68187;42.682;23.352;2023-05-29T06:25:38;95037.47;;;16.57;71.54
78835;BME280;68187;42.682;23.352;2023-05-29T06:28:04;95007.66;;;16.55;71.09
78835;BME280;68187;42.682;23.352;2023-05-29T06:30:32;95023.34;;;16.78;70.25
78835;BME280;68187;42.682;23.352;2023-05-29T06:32:59;95038.28;;;16.88;69.91
78835;BME280;68187;42.682;23.352;2023-05-29T06:35:25;94988.72;;;16.87;69.57
78835;BME280;68187;42.682;23.352;2023-05-29T06:37:53;95032.66;;;17.29;69.69
78835;BME280;68187;42.682;23.352;2023-05-29T06:40:20;95019.38;;;17.37;68.29
78835;BME280;68187;42.682;23.352;2023-05-29T06:42:47;95028.25;;;17.63;66.14
78835;BME280;68187;42.682;23.352;2023-05-29T06:45:14;95026.72;;;17.71;67.12
78835;BME280;68187;42.682;23.352;2023-05-29T06:47:41;95014.69;;;17.51;67.67
78835;BME280;68187;42.682;23.352;2023-05-29T06:50:09;95019.78;;;17.70;67.07
78835;BME280;68187;42.682;23.352;2023-05-29T06:52:35;95014.16;;;17.71;66.37
78835;BME280;68187;42.682;23.352;2023-05-29T06:55:05;95016.16;;;17.66;67.12
78835;BME280;68187;42.682;23.352;2023-05-29T06:57:32;94988.84;;;17.60;66.00
78835;BME280;68187;42.682;23.352;2023-05-29T06:59:58;94952.91;;;17.36;66.81
78835;BME280;68187;42.682;23.352;2023-05-29T07:02:25;95025.97;;;18.05;65.89
78835;BME280;68187;42.682;23.352;2023-05-29T07:04:52;95003.78;;;17.96;65.15
78835;BME280;68187;42.682;23.352;2023-05-29T07:07:18;94973.44;;;17.66;65.73
78835;BME280;68187;42.682;23.352;2023-05-29T07:09:45;95026.13;;;18.00;65.73
78835;BME280;68187;42.682;23.352;2023-05-29T07:12:13;95024.69;;;17.94;65.19
78835;BME280;68187;42.682;23.352;2023-05-29T07:14:40;95018.56;;;17.76;65.90
78835;BME280;68187;42.682;23.352;2023-05-29T07:17:07;95026.44;;;18.07;66.30
78835;BME280;68187;42.682;23.352;2023-05-29T07:19:33;94970.94;;;17.87;65.66
78835;BME280;68187;42.682;23.352;2023-05-29T07:22:00;94984.16;;;18.00;64.25
78835;BME280;68187;42.682;23.352;2023-05-29T07:24:27;95025.97;;;18.39;64.56
78835;BME280;68187;42.682;23.352;2023-05-29T07:26:54;95022.38;;;18.35;64.87
78835;BME280;68187;42.682;23.352;2023-05-29T07:29:22;95019.84;;;18.30;64.10
78835;BME280;68187;42.682;23.352;2023-05-29T07:31:49;95030.06;;;18.36;64.50
78835;BME280;68187;42.682;23.352;2023-05-29T07:34:16;95030.84;;;18.37;64.25
78835;BME280;68187;42.682;23.352;2023-05-29T07:37:00;95028.78;;;18.42;64.43
78835;BME280;68187;42.682;23.352;2023-05-29T07:39:27;95004.28;;;18.23;64.19
78835;BME280;68187;42.682;23.352;2023-05-29T07:41:54;95021.25;;;18.27;64.53
78835;BME280;68187;42.682;23.352;2023-05-29T07:44:22;95039.81;;;18.24;65.39
78835;BME280;68187;42.682;23.352;2023-05-29T07:46:49;95025.03;;;18.09;64.67
78835;BME280;68187;42.682;23.352;2023-05-29T07:49:15;94975.78;;;17.67;66.35
78835;BME280;68187;42.682;23.352;2023-05-29T07:51:50;95016.06;;;17.97;65.17
78835;BME280;68187;42.682;23.352;2023-05-29T07:54:26;95011.66;;;17.92;65.00
78835;BME280;68187;42.682;23.352;2023-05-29T07:56:53;95008.66;;;18.11;66.41
78835;BME280;68187;42.682;23.352;2023-05-29T07:59:21;95007.25;;;18.22;65.50
78835;BME280;68187;42.682;23.352;2023-05-29T08:01:48;95034.47;;;18.41;64.35
78835;BME280;68187;42.682;23.352;2023-05-29T08:04:15;95001.59;;;18.23;64.39
78835;BME280;68187;42.682;23.352;2023-05-29T08:06:42;95005.06;;;18.07;63.33
78835;BME280;68187;42.682;23.352;2023-05-29T08:09:09;95019.34;;;18.11;63.88
78835;BME280;68187;42.682;23.352;2023-05-29T08:11:36;95037.91;;;18.24;65.33
78835;BME280;68187;42.682;23.352;2023-05-29T08:14:03;94941.38;;;17.66;65.92
78835;BME280;68187;42.682;23.352;2023-05-29T08:16:32;95024.72;;;18.28;66.08
78835;BME280;68187;42.682;23.352;2023-05-29T08:18:58;95029.13;;;18.41;64.72
78835;BME280;68187;42.682;23.352;2023-05-29T08:21:25;95011.84;;;18.56;65.43
78835;BME280;68187;42.682;23.352;2023-05-29T08:23:52;95016.53;;;18.67;62.74
78835;BME280;68187;42.682;23.352;2023-05-29T08:26:19;95034.59;;;18.87;62.57
78835;BME280;68187;42.682;23.352;2023-05-29T08:28:46;95003.94;;;18.76;63.75
78835;BME280;68187;42.682;23.352;2023-05-29T08:31:13;95032.50;;;19.01;64.19
78835;BME280;68187;42.682;23.352;2023-05-29T08:33:41;95022.91;;;19.00;61.57
78835;BME280;68187;42.682;23.352;2023-05-29T08:36:08;95037.94;;;19.31;62.14
78835;BME280;68187;42.682;23.352;2023-05-29T08:38:35;95008.81;;;19.20;60.48
78835;BME280;68187;42.682;23.352;2023-05-29T08:41:02;94989.06;;;18.96;60.24
78835;BME280;68187;42.682;23.352;2023-05-29T08:43:31;95027.28;;;19.13;59.40
78835;BME280;68187;42.682;23.352;2023-05-29T08:46:00;94963.50;;;18.69;59.82
78835;BME280;68187;42.682;23.352;2023-05-29T08:48:29;94978.09;;;18.80;60.03
78835;BME280;68187;42.682;23.352;2023-05-29T08:50:58;94982.59;;;18.97;58.94
78835;BME280;68187;42.682;23.352;2023-05-29T08:53:28;95019.41;;;19.55;59.72
78835;BME280;68187;42.682;23.352;2023-05-29T08:55:57;94980.19;;;19.50;57.55
78835;BME280;68187;42.682;23.352;2023-05-29T08:58:24;94963.53;;;19.65;57.00
78835;BME280;68187;42.682;23.352;2023-05-29T09:00:52;94999.06;;;20.04;55.97
78835;BME280;68187;42.682;23.352;2023-05-29T09:03:20;94987.69;;;19.86;55.01
78835;BME280;68187;42.682;23.352;2023-05-29T09:05:48;94999.25;;;19.78;55.35
78835;BME280;68187;42.682;23.352;2023-05-29T09:08:16;94984.06;;;19.61;56.82
78835;BME280;68187;42.682;23.352;2023-05-29T09:10:44;94926.16;;;19.19;56.35
78835;BME280;68187;42.682;23.352;2023-05-29T09:13:11;94994.16;;;19.64;56.76
78835;BME280;68187;42.682;23.352;2023-05-29T09:15:39;94996.66;;;19.61;55.90
78835;BME280;68187;42.682;23.352;2023-05-29T09:18:08;94995.94;;;19.52;57.43
78835;BME280;68187;42.682;23.352;2023-05-29T09:20:35;94988.56;;;19.49;57.72
78835;BME280;68187;42.682;23.352;2023-05-29T09:23:03;94985.09;;;19.48;57.47
78835;BME280;68187;42.682;23.352;2023-05-29T09:25:33;94983.38;;;19.44;57.22
78835;BME280;68187;42.682;23.352;2023-05-29T09:28:01;94969.41;;;19.30;57.28
78835;BME280;68187;42.682;23.352;2023-05-29T09:30:37;94982.78;;;19.30;58.01
78835;BME280;68187;42.682;23.352;2023-05-29T09:33:05;94966.31;;;19.19;56.63
78835;BME280;68187;42.682;23.352;2023-05-29T09:35:36;94949.72;;;18.96;58.29
78835;BME280;68187;42.682;23.352;2023-05-29T09:38:04;94970.97;;;19.31;58.16
78835;BME280;68187;42.682;23.352;2023-05-29T09:40:34;94955.38;;;19.62;60.55
78835;BME280;68187;42.682;23.352;2023-05-29T09:43:03;94941.47;;;19.89;54.94
78835;BME280;68187;42.682;23.352;2023-05-29T09:45:33;94952.75;;;20.24;55.09
78835;BME280;68187;42.682;23.352;2023-05-29T09:48:02;94956.00;;;20.74;57.61
78835;BME280;68187;42.682;23.352;2023-05-29T09:50:29;94951.16;;;21.00;50.50
78835;BME280;68187;42.682;23.352;2023-05-29T09:52:56;94949.19;;;21.21;52.53
78835;BME280;68187;42.682;23.352;2023-05-29T09:55:24;94953.41;;;21.59;50.21
78835;BME280;68187;42.682;23.352;2023-05-29T09:57:54;94929.31;;;21.74;53.87
78835;BME280;68187;42.682;23.352;2023-05-29T10:00:21;94939.03;;;22.03;51.49
78835;BME280;68187;42.682;23.352;2023-05-29T10:02:49;94934.66;;;21.98;51.89
78835;BME280;68187;42.682;23.352;2023-05-29T10:05:16;94941.50;;;21.96;49.53
78835;BME280;68187;42.682;23.352;2023-05-29T10:07:44;94932.44;;;21.88;49.46
78835;BME280;68187;42.682;23.352;2023-05-29T10:10:14;94941.59;;;21.99;50.35
78835;BME280;68187;42.682;23.352;2023-05-29T10:12:45;94934.56;;;22.23;50.61
78835;BME280;68187;42.682;23.352;2023-05-29T10:15:17;94935.16;;;22.44;48.54
78835;BME280;68187;42.682;23.352;2023-05-29T10:17:50;94931.69;;;22.43;46.38
78835;BME280;68187;42.682;23.352;2023-05-29T10:20:20;94948.94;;;22.42;48.85
78835;BME280;68187;42.682;23.352;2023-05-29T10:22:49;94941.06;;;22.22;47.63
78835;BME280;68187;42.682;23.352;2023-05-29T10:25:18;94925.06;;;22.13;49.00
78835;BME280;68187;42.682;23.352;2023-05-29T10:27:46;94940.13;;;22.42;48.91
78835;BME280;68187;42.682;23.352;2023-05-29T10:30:20;94942.03;;;22.69;47.86
78835;BME280;68187;42.682;23.352;2023-05-29T10:33:04;94912.31;;;22.81;47.29
78835;BME280;68187;42.682;23.352;2023-05-29T10:35:40;94935.09;;;22.99;44.86
78835;BME280;68187;42.682;23.352;2023-05-29T10:38:12;94899.97;;;22.64;46.29
78835;BME280;68187;42.682;23.352;2023-05-29T10:40:40;94920.81;;;22.40;45.97
78835;BME280;68187;42.682;23.352;2023-05-29T10:43:07;94890.41;;;21.96;47.08
78835;BME280;68187;42.682;23.352;2023-05-29T10:45:50;94920.13;;;21.75;47.62
78835;BME280;68187;42.682;23.352;2023-05-29T10:48:42;94916.25;;;21.49;49.90
78835;BME280;68187;42.682;23.352;2023-05-29T10:51:24;94896.47;;;21.05;49.24
78835;BME280;68187;42.682;23.352;2023-05-29T10:53:51;94881.19;;;20.73;49.54
78835;BME280;68187;42.682;23.352;2023-05-29T10:56:21;94905.38;;;20.85;51.41
78835;BME280;68187;42.682;23.352;2023-05-29T10:58:52;94923.38;;;20.84;50.76
78835;BME280;68187;42.682;23.352;2023-05-29T11:01:22;94889.97;;;20.49;49.88
78835;BME280;68187;42.682;23.352;2023-05-29T11:03:50;94903.31;;;20.57;50.87
78835;BME280;68187;42.682;23.352;2023-05-29T11:06:18;94884.31;;;20.50;51.01
78835;BME280;68187;42.682;23.352;2023-05-29T11:08:46;94896.28;;;20.65;51.41
78835;BME280;68187;42.682;23.352;2023-05-29T11:11:14;94882.75;;;20.61;53.72
78835;BME280;68187;42.682;23.352;2023-05-29T11:13:51;94897.44;;;20.76;50.96
78835;BME280;68187;42.682;23.352;2023-05-29T11:16:35;94905.28;;;21.17;49.34
78835;BME280;68187;42.682;23.352;2023-05-29T11:19:04;94882.22;;;21.53;51.08
78835;BME280;68187;42.682;23.352;2023-05-29T11:21:34;94871.38;;;21.77;49.44
78835;BME280;68187;42.682;23.352;2023-05-29T11:24:04;94875.19;;;21.88;49.32
78835;BME280;68187;42.682;23.352;2023-05-29T11:26:32;94869.22;;;21.94;50.32
78835;BME280;68187;42.682;23.352;2023-05-29T11:28:59;94895.72;;;22.36;46.44
78835;BME280;68187;42.682;23.352;2023-05-29T11:31:31;94889.84;;;22.46;48.33
78835;BME280;68187;42.682;23.352;2023-05-29T11:34:00;94890.06;;;22.68;46.44
78835;BME280;68187;42.682;23.352;2023-05-29T11:36:30;94890.63;;;22.90;48.55
78835;BME280;68187;42.682;23.352;2023-05-29T11:38:58;94879.47;;;23.22;47.76
78835;BME280;68187;42.682;23.352;2023-05-29T11:41:25;94876.44;;;23.59;44.43
78835;BME280;68187;42.682;23.352;2023-05-29T11:43:58;94876.41;;;23.74;42.67
78835;BME280;68187;42.682;23.352;2023-05-29T11:46:29;94882.47;;;23.52;43.48
78835;BME280;68187;42.682;23.352;2023-05-29T11:48:58;94839.00;;;22.88;43.54
78835;BME280;68187;42.682;23.352;2023-05-29T11:51:25;94875.31;;;22.78;43.54
78835;BME280;68187;42.682;23.352;2023-05-29T11:53:52;94890.13;;;22.56;44.62
78835;BME280;68187;42.682;23.352;2023-05-29T11:56:23;94886.06;;;22.19;46.49
78835;BME280;68187;42.682;23.352;2023-05-29T11:58:50;94863.06;;;21.42;48.83
78835;BME280;68187;42.682;23.352;2023-05-29T12:01:20;94889.19;;;21.29;51.02
78835;BME280;68187;42.682;23.352;2023-05-29T12:03:50;94875.50;;;20.98;52.91
78835;BME280;68187;42.682;23.352;2023-05-29T12:06:30;94896.88;;;20.95;54.17
78835;BME280;68187;42.682;23.352;2023-05-29T12:08:57;94889.72;;;20.87;55.43
78835;BME280;68187;42.682;23.352;2023-05-29T12:11:24;94902.78;;;20.88;55.92
78835;BME280;68187;42.682;23.352;2023-05-29T12:13:55;94910.81;;;20.64;55.76
78835;BME280;68187;42.682;23.352;2023-05-29T12:16:22;94909.53;;;20.37;58.63
78835;BME280;68187;42.682;23.352;2023-05-29T12:18:53;94904.47;;;20.03;60.77
78835;BME280;68187;42.682;23.352;2023-05-29T12:21:21;94913.63;;;19.81;61.51
78835;BME280;68187;42.682;23.352;2023-05-29T12:23:51;94939.16;;;19.58;62.73
78835;BME280;68187;42.682;23.352;2023-05-29T12:26:18;94931.25;;;19.41;64.53
78835;BME280;68187;42.682;23.352;2023-05-29T12:28:45;94937.78;;;19.23;62.29
78835;BME280;68187;42.682;23.352;2023-05-29T12:31:12;94949.13;;;19.20;62.30
78835;BME280;68187;42.682;23.352;2023-05-29T12:33:43;94928.31;;;18.88;65.37
78835;BME280;68187;42.682;23.352;2023-05-29T12:36:12;94954.66;;;18.77;67.52
78835;BME280;68187;42.682;23.352;2023-05-29T12:38:46;94942.91;;;18.44;69.23
78835;BME280;68187;42.682;23.352;2023-05-29T12:41:22;94930.06;;;18.20;70.67
78835;BME280;68187;42.682;23.352;2023-05-29T12:43:52;94925.19;;;18.05;73.24
78835;BME280;68187;42.682;23.352;2023-05-29T12:46:20;94933.19;;;18.14;75.68
78835;BME280;68187;42.682;23.352;2023-05-29T12:48:47;94946.09;;;18.20;73.52
78835;BME280;68187;42.682;23.352;2023-05-29T12:51:17;94929.91;;;18.17;73.14
78835;BME280;68187;42.682;23.352;2023-05-29T12:53:48;94942.16;;;18.18;71.78
78835;BME280;68187;42.682;23.352;2023-05-29T12:56:15;94876.16;;;17.84;74.59